createdAt,value
2023-05-20T00:02:23.511Z,12.86
2023-05-20T00:07:25.525Z,12.91
2023-05-20T00:12:27.481Z,12.90
2023-05-20T00:17:29.498Z,13.00
2023-05-20T00:22:32.121Z,13.08
2023-05-20T00:27:34.039Z,13.02
2023-05-20T00:32:35.999Z,13.11
2023-05-20T00:37:37.855Z,13.21
2023-05-20T00:42:39.759Z,13.24
2023-05-20T00:47:42.696Z,13.35
2023-05-20T00:52:45.525Z,13.48
2023-05-20T00:57:48.929Z,13.52
2023-05-20T01:02:51.124Z,13.61
2023-05-20T01:07:53.131Z,13.60
2023-05-20T01:13:01.271Z,13.71
2023-05-20T01:18:06.328Z,13.68
2023-05-20T01:23:08.516Z,13.68
2023-05-20T01:28:10.541Z,13.67
2023-05-20T01:33:16.633Z,13.73
2023-05-20T01:38:19.743Z,13.70
2023-05-20T01:43:22.732Z,13.64
2023-05-20T01:48:24.632Z,13.61
2023-05-20T01:53:27.399Z,13.72
2023-05-20T01:58:29.303Z,13.70
2023-05-20T02:03:31.366Z,13.71
2023-05-20T02:08:34.591Z,13.73
2023-05-20T02:13:36.482Z,13.77
2023-05-20T02:18:38.815Z,13.75
2023-05-20T02:23:40.777Z,13.76
2023-05-20T02:28:46.747Z,13.68
2023-05-20T02:33:49.104Z,13.68
2023-05-20T02:38:51.335Z,13.75
2023-05-20T02:43:53.193Z,13.75
2023-05-20T02:48:55.503Z,13.69
2023-05-20T02:53:58.522Z,13.68
2023-05-20T02:59:00.433Z,13.57
2023-05-20T03:04:03.835Z,13.61
2023-05-20T03:09:06.144Z,13.57
2023-05-20T03:14:08.043Z,13.51
2023-05-20T03:19:09.961Z,13.37
2023-05-20T03:24:11.926Z,13.30
2023-05-20T03:29:14.582Z,13.23
2023-05-20T03:34:16.455Z,13.00
2023-05-20T03:39:19.467Z,12.95
2023-05-20T03:44:21.557Z,12.77
2023-05-20T03:49:24.260Z,12.58
2023-05-20T03:54:28.155Z,12.66
2023-05-20T03:59:30.561Z,12.77
2023-05-20T04:04:32.724Z,12.83
2023-05-20T04:09:34.701Z,12.89
2023-05-20T04:14:39.073Z,12.91
2023-05-20T04:19:40.964Z,13.11
2023-05-20T04:24:43.015Z,13.20
2023-05-20T04:29:47.776Z,13.34
2023-05-20T04:34:50.805Z,13.51
2023-05-20T04:39:53.176Z,13.68
2023-05-20T04:44:55.210Z,13.75
2023-05-20T04:49:57.977Z,14.01
2023-05-20T04:55:02.054Z,14.11
2023-05-20T05:00:07.535Z,14.23
2023-05-20T05:05:09.596Z,14.12
2023-05-20T05:10:12.237Z,14.34
2023-05-20T05:15:14.356Z,14.39
2023-05-20T05:20:18.217Z,14.24
2023-05-20T05:25:20.770Z,14.27
2023-05-20T05:30:22.759Z,14.01
2023-05-20T05:35:24.804Z,14.31
2023-05-20T05:40:27.246Z,14.65
2023-05-20T05:45:29.314Z,14.91
2023-05-20T05:50:31.611Z,15.01
2023-05-20T05:55:34.234Z,14.94
2023-05-20T06:00:36.320Z,15.13
2023-05-20T06:05:38.254Z,14.82
2023-05-20T06:10:40.478Z,14.71
2023-05-20T06:15:42.546Z,14.34
2023-05-20T06:20:44.558Z,14.53
2023-05-20T06:25:49.288Z,15.15
2023-05-20T06:30:53.098Z,15.82
2023-05-20T06:35:57.477Z,16.30
2023-05-20T06:40:59.495Z,16.11
2023-05-20T06:46:02.856Z,16.33
2023-05-20T06:51:10.560Z,15.99
2023-05-20T06:56:14.907Z,15.96
2023-05-20T07:01:18.406Z,16.68
2023-05-20T07:06:21.688Z,16.90
2023-05-20T07:11:23.796Z,16.48
2023-05-20T07:16:25.951Z,16.64
2023-05-20T07:21:31.031Z,16.84
2023-05-20T07:27:12.516Z,17.23
2023-05-20T07:32:14.834Z,17.36
2023-05-20T07:37:17.683Z,17.58
2023-05-20T07:42:20.889Z,18.70
2023-05-20T07:47:26.383Z,19.10
2023-05-20T07:52:35.609Z,19.83
2023-05-20T07:57:44.853Z,20.50
2023-05-20T08:02:49.298Z,21.56
2023-05-20T08:07:57.625Z,22.94
2023-05-20T08:13:02.656Z,21.36
2023-05-20T08:18:06.187Z,19.82
2023-05-20T08:23:08.308Z,19.43
2023-05-20T08:28:11.268Z,20.17
2023-05-20T08:33:15.823Z,20.83
2023-05-20T08:38:19.118Z,19.90
2023-05-20T08:43:21.235Z,19.26
2023-05-20T08:48:27.960Z,18.63
2023-05-20T08:53:33.879Z,18.67
2023-05-20T08:58:39.407Z,18.97
2023-05-20T09:03:49.221Z,18.66
2023-05-20T09:08:52.893Z,19.09
2023-05-20T09:13:57.914Z,18.52
2023-05-20T09:19:01.472Z,19.09
2023-05-20T09:24:03.503Z,18.51
2023-05-20T09:29:06.417Z,18.84
2023-05-20T09:34:08.389Z,19.68
2023-05-20T09:39:20.133Z,18.87
2023-05-20T09:44:25.237Z,18.42
2023-05-20T09:49:29.734Z,18.25
2023-05-20T09:54:32.446Z,17.68
2023-05-20T09:59:39.172Z,17.73
2023-05-20T10:04:48.038Z,18.41
2023-05-20T10:10:20.123Z,18.41
2023-05-20T10:15:37.989Z,19.08
2023-05-20T10:20:48.207Z,19.21
2023-05-20T10:26:14.081Z,19.33
2023-05-20T10:31:19.029Z,19.35
2023-05-20T10:36:28.818Z,18.68
2023-05-20T10:41:31.855Z,19.13
2023-05-20T10:46:53.948Z,19.52
2023-05-20T10:52:00.217Z,19.20
2023-05-20T10:57:09.514Z,18.75
2023-05-20T11:02:16.532Z,19.03
2023-05-20T11:07:32.184Z,18.97
2023-05-20T11:12:35.284Z,19.38
2023-05-20T11:17:38.365Z,19.14
2023-05-20T11:22:40.679Z,18.67
2023-05-20T11:27:44.028Z,18.95
2023-05-20T11:33:01.701Z,18.75
2023-05-20T11:38:11.426Z,18.49
2023-05-20T11:43:15.605Z,18.16
2023-05-20T11:48:19.364Z,18.58
2023-05-20T11:53:23.407Z,18.44
2023-05-20T11:58:32.235Z,19.11
2023-05-20T12:03:34.431Z,20.12
2023-05-20T12:08:36.433Z,20.02
2023-05-20T12:13:41.113Z,19.44
2023-05-20T12:18:43.167Z,19.71
2023-05-20T12:23:47.425Z,19.57
2023-05-20T12:28:52.477Z,19.65
2023-05-20T12:33:58.446Z,19.66
2023-05-20T12:39:11.216Z,19.54
2023-05-20T12:44:14.104Z,19.68
2023-05-20T12:49:18.147Z,19.60
2023-05-20T12:54:21.392Z,19.61
2023-05-20T12:59:28.565Z,19.31
2023-05-20T13:04:31.511Z,19.50
2023-05-20T13:09:38.761Z,19.41
2023-05-20T13:14:41.690Z,19.84
2023-05-20T13:19:44.250Z,19.61
2023-05-20T13:24:46.157Z,19.39
2023-05-20T13:29:48.138Z,19.34
2023-05-20T13:34:50.127Z,19.26
2023-05-20T13:39:52.174Z,19.23
2023-05-20T13:44:55.104Z,19.31
2023-05-20T13:49:57.054Z,19.60
2023-05-20T13:55:00.219Z,19.63
2023-05-20T14:00:02.269Z,19.60
2023-05-20T14:05:10.821Z,19.80
2023-05-20T14:10:12.787Z,19.87
2023-05-20T14:15:14.809Z,19.35
2023-05-20T14:20:17.811Z,19.72
2023-05-20T14:25:19.881Z,19.09
2023-05-20T14:30:22.810Z,18.87
2023-05-20T14:35:24.739Z,19.20
2023-05-20T14:40:27.988Z,19.75
2023-05-20T14:45:30.054Z,19.56
2023-05-20T14:50:34.262Z,19.68
2023-05-20T14:55:37.452Z,19.45
2023-05-20T15:00:40.085Z,19.53
2023-05-20T15:05:42.707Z,19.50
2023-05-20T15:10:45.851Z,19.61
2023-05-20T15:15:50.942Z,19.86
2023-05-20T15:20:54.973Z,19.84
2023-05-20T15:25:58.693Z,19.77
2023-05-20T15:31:01.968Z,19.60
2023-05-20T15:36:04.267Z,19.67
2023-05-20T15:41:08.087Z,19.74
2023-05-20T15:46:11.761Z,19.75
2023-05-20T15:51:14.841Z,19.44
2023-05-20T15:56:16.854Z,19.37
2023-05-20T16:01:18.743Z,19.67
2023-05-20T16:06:20.796Z,19.59
2023-05-20T16:11:22.662Z,19.74
2023-05-20T16:16:26.656Z,19.43
2023-05-20T16:21:28.527Z,19.12
2023-05-20T16:26:31.608Z,18.84
2023-05-20T16:31:33.688Z,18.65
2023-05-20T16:36:36.712Z,19.02
2023-05-20T16:41:38.599Z,19.21
2023-05-20T16:46:40.763Z,19.20
2023-05-20T16:51:43.286Z,18.98
2023-05-20T16:56:45.381Z,19.09
2023-05-20T17:01:47.247Z,19.21
2023-05-20T17:06:50.302Z,19.04
2023-05-20T17:11:53.056Z,18.83
2023-05-20T17:16:54.985Z,18.72
2023-05-20T17:21:56.976Z,18.65
2023-05-20T17:26:58.920Z,18.49
2023-05-20T17:32:00.832Z,18.82
2023-05-20T17:37:02.671Z,18.63
2023-05-20T17:42:04.865Z,19.03
2023-05-20T17:47:06.903Z,18.73
2023-05-20T17:52:09.035Z,18.69
2023-05-20T17:57:11.199Z,18.60
2023-05-20T18:02:13.103Z,18.33
2023-05-20T18:07:15.101Z,18.28
2023-05-20T18:12:17.008Z,18.22
2023-05-20T18:17:19.010Z,18.01
2023-05-20T18:22:21.014Z,17.75
2023-05-20T18:27:22.931Z,17.75
2023-05-20T18:32:28.566Z,17.59
2023-05-20T18:37:30.868Z,17.36
2023-05-20T18:42:32.720Z,17.14
2023-05-20T18:47:34.653Z,16.96
2023-05-20T18:52:36.527Z,16.92
2023-05-20T18:57:38.552Z,16.85
2023-05-20T19:02:40.795Z,16.93
2023-05-20T19:07:42.689Z,16.90
2023-05-20T19:12:44.617Z,16.97
2023-05-20T19:17:46.561Z,17.06
2023-05-20T19:22:48.504Z,16.94
2023-05-20T19:27:50.634Z,16.81
2023-05-20T19:32:52.515Z,16.71
2023-05-20T19:37:54.455Z,16.42
2023-05-20T19:42:56.404Z,16.34
2023-05-20T19:47:58.611Z,16.44
2023-05-20T19:53:01.397Z,16.40
2023-05-20T19:58:03.274Z,16.35
2023-05-20T20:03:07.375Z,16.28
2023-05-20T20:08:09.318Z,16.13
2023-05-20T20:13:11.323Z,16.05
2023-05-20T20:18:13.171Z,16.05
2023-05-20T20:23:15.015Z,16.01
2023-05-20T20:28:16.868Z,15.91
2023-05-20T20:33:19.698Z,15.78
2023-05-20T20:38:21.715Z,15.96
2023-05-20T20:43:23.565Z,15.95
2023-05-20T20:48:27.290Z,15.94
2023-05-20T20:53:29.329Z,15.91
2023-05-20T20:58:35.137Z,15.94
2023-05-20T21:03:40.258Z,15.89
2023-05-20T21:08:43.794Z,15.78
2023-05-20T21:13:46.999Z,15.80
2023-05-20T21:18:49.881Z,15.75
2023-05-20T21:23:54.896Z,15.71
2023-05-20T21:28:56.820Z,15.66
2023-05-20T21:33:59.280Z,15.62
2023-05-20T21:39:01.282Z,15.58
2023-05-20T21:44:04.611Z,15.65
2023-05-20T21:49:06.657Z,15.50
2023-05-20T21:54:08.489Z,15.49
2023-05-20T21:59:10.404Z,15.53
2023-05-20T22:04:12.424Z,15.57
2023-05-20T22:09:14.429Z,15.57
2023-05-20T22:14:16.865Z,15.45
2023-05-20T22:19:18.929Z,15.32
2023-05-20T22:24:20.906Z,15.17
2023-05-20T22:29:22.820Z,15.11
2023-05-20T22:34:24.769Z,14.95
2023-05-20T22:39:26.607Z,14.91
2023-05-20T22:44:28.474Z,14.98
2023-05-20T22:49:30.351Z,14.89
2023-05-20T22:54:32.418Z,14.78
2023-05-20T22:59:34.372Z,14.77
2023-05-20T23:04:36.270Z,14.65
2023-05-20T23:09:38.161Z,14.66
2023-05-20T23:14:40.045Z,14.73
2023-05-20T23:19:41.989Z,14.78
2023-05-20T23:24:43.871Z,14.79
2023-05-20T23:29:46.094Z,14.77
2023-05-20T23:34:47.961Z,14.64
2023-05-20T23:39:49.867Z,14.42
2023-05-20T23:44:51.787Z,14.35
2023-05-20T23:49:56.003Z,14.39
2023-05-20T23:54:58.680Z,14.51
